Valley Peak, Santa Cruz Island Reserve, California Weather observations

Data are for 10 minute period ending at time listed.
 Day   Time   Solar   Ave.   Ave.  Ave.  Vector  Max.   Baro.   Total    
  of    of     Rad.   Air    Rel.  Wind   Wind   Wind  Press.  Precip.   
Year   Day            Temp.  Hum.  Speed  Dir.   Gust                    
2015   (PST)  Kw/m2    F      %     mph   deg.    mph    mb.     in.     
-------------------------------------------------------------------------
  58   20:20   0.00   50.9    85   17.3   307    29.7   959.0    0.00 
  58   20:30   0.00   50.9    85   18.5   311    33.2   959.0    0.00 
  58   20:40   0.00   51.0    82   18.7   304    35.7   958.9    0.00 
  58   20:50   0.00   51.0    83   17.4   312    31.9   958.9    0.00 
  58   21:00   0.00   50.9    84   18.8   308    39.0   958.9    0.00 
  58   21:10   0.00   50.8    85   15.6   312    25.2   959.0    0.00 
  58   21:20   0.00   50.6    88   16.2   307    28.1   959.0    0.00 
  58   21:30   0.00   50.3    87   16.1   314    27.5   959.0    0.00 
  58   21:40   0.00   50.4    86   15.5   318    33.9   959.0    0.00 
  58   21:50   0.00   50.2    86   19.4   307    31.8   958.9    0.00 
  58   22:00   0.00   49.8    85   16.3   311    30.4   958.9    0.00 
  58   22:10   0.00   49.7    85   15.6   317    25.9   959.0    0.00 
  58   22:20   0.00   49.4    84   11.0   313    21.2   959.0    0.00 
  58   22:30   0.00   49.3    82   14.6   311    26.7   959.0    0.00 
  58   22:40   0.00   49.1    83   13.4   294    24.1   958.9    0.00 
  58   22:50   0.00   48.9    83   13.2   315    21.8   958.8    0.00 
  58   23:00   0.00   48.8    82   15.9   314    30.5   958.7    0.00 
  58   23:10   0.00   48.9    82   17.1   316    28.2   958.8    0.00 
  58   23:20   0.00   48.9    81   11.5   315    24.3   958.9    0.00 
  58   23:30   0.00   48.6    82   10.6   313    23.1   958.9    0.00 
  58   23:40   0.00   48.8    82   13.1   316    24.5   958.9    0.00 
  58   23:50   0.00   48.8    80   15.1   313    33.8   958.8    0.00 
  59    0:00   0.00   48.6    80   15.1   317    30.6   958.8    0.00 
  59    0:10   0.00   48.5    80   15.6   311    31.0   958.7    0.00 
  59    0:20   0.00   48.6    80   15.1   315    26.7   958.8    0.00 
  59    0:30   0.00   48.6    82   12.9   322    22.1   958.8    0.00 
  59    0:40   0.00   48.8    82   12.8   316    24.2   958.8    0.00 
  59    0:50   0.00   49.0    82   11.9   321    22.2   958.9    0.00 
  59    1:00   0.00   48.9    81   10.6   326    19.9   958.9    0.00 
  59    1:10   0.00   48.9    82    9.2   311    21.0   959.1    0.00 
  59    1:20   0.00   48.9    84   10.9   320    21.0   959.1    0.00 
  59    1:30   0.00   48.9    84   10.4   330    16.7   959.1    0.00 
  59    1:40   0.00   49.0    84    8.0   334    15.3   959.2    0.00 
  59    1:50   0.00   48.8    85    9.7   312    20.2   959.2    0.00 
  59    2:00   0.00   48.4    81   14.7   316    25.5   959.2    0.00 
  59    2:10   0.00   48.3    78   14.8   317    26.0   959.1    0.00 
  59    2:20   0.00   48.2    78   15.9   323    29.7   959.0    0.00 
  59    2:30   0.00   48.2    79   15.6   322    31.7   959.0    0.00 
  59    2:40   0.00   48.1    78   14.6   319    26.5   959.0    0.00 
  59    2:50   0.00   47.9    79   12.5   319    23.5   958.9    0.00 
  59    3:00   0.00   47.9    80   13.8   310    26.2   958.9    0.00 
  59    3:10   0.00   47.8    81   12.6   316    23.8   958.8    0.00 
  59    3:20   0.00   47.8    81   19.3   312    31.1   958.6    0.00 
  59    3:30   0.00   47.7    84   18.6   312    30.5   958.6    0.00 
  59    3:40   0.00   47.6    86   16.0   318    27.0   958.7    0.00 
  59    3:50   0.00   47.3    90   11.3   334    20.0   958.7    0.00 
  59    4:00   0.00   47.2    89   17.2   318    30.5   958.6    0.00 
  59    4:10   0.00   47.5    85   16.3   319    24.6   958.6    0.00 
  59    4:20   0.00   47.4    82   15.2   327    26.6   958.6    0.00 
  59    4:30   0.00   47.4    80   16.1   322    26.2   958.6    0.00 
  59    4:40   0.00   47.2    83   12.3   328    22.7   958.6    0.00 
  59    4:50   0.00   47.0    84   15.3   335    28.0   958.4    0.00 
  59    5:00   0.00   47.1    82   17.3   338    29.0   958.4    0.00 
  59    5:10   0.00   47.0    83   15.7   334    27.2   958.5    0.00 
  59    5:20   0.00   47.1    82   16.0   327    25.8   958.6    0.00 
  59    5:30   0.00   47.0    83   14.8   333    23.5   958.6    0.00 
  59    5:40   0.00   47.0    83   16.8   337    28.6   958.6    0.00 
  59    5:50   0.00   46.8    84   13.6   344    25.2   958.7    0.00 
  59    6:00   0.00   46.8    85   16.4   333    24.3   958.8    0.00 
  59    6:10   0.00   46.8    84   14.5   346    24.5   958.8    0.00 
  59    6:20   0.00   46.6    84   13.2   344    21.5   958.8    0.00 
  59    6:30   0.00   46.8    81   13.7   340    23.7   958.9    0.00 
  59    6:40   0.01   46.7    82   14.4   341    24.2   959.0    0.00 
  59    6:50   0.02   46.9    82   14.2   338    25.5   959.1    0.00 
  59    7:00   0.02   46.8    82   13.1   334    22.6   959.3    0.00 
  59    7:10   0.04   47.0    80   16.9   334    24.7   959.5    0.00 
  59    7:20   0.12   47.3    78   13.6   332    25.8   959.7    0.00 
  59    7:30   0.16   47.8    74   15.3   330    23.9   959.8    0.00 
  59    7:40   0.20   48.2    73   13.6   341    23.7   960.1    0.00 
  59    7:50   0.24   48.6    74   12.1   340    22.0   960.2    0.00 
  59    8:00   0.28   48.8    74   13.6   338    24.7   960.3    0.00 
  59    8:10   0.31   49.1    75   12.0   345    20.5   960.3    0.00 
  59    8:20   0.34   49.4    75   12.4   335    21.8   960.5    0.00 
  59    8:30   0.38   49.6    76   13.3   332    23.1   960.8    0.00 
  59    8:40   0.44   50.1    75   12.6   324    19.0   961.0    0.00 
  59    8:50   0.43   50.5    74   12.1   322    19.8   961.3    0.00 
  59    9:00   0.32   50.6    73    9.3   322    16.8   961.4    0.00 
  59    9:10   0.53   51.2    71    8.3   307    15.0   961.5    0.00 
  59    9:20   0.69   53.0    68    8.0   303    17.0   961.6    0.00 
  59    9:30   0.41   53.3    67    7.9   333    18.7   961.6    0.00 
  59    9:40   0.39   51.9    69    9.2   323    15.3   961.6    0.00 
  59    9:50   0.50   52.6    68    9.8   293    16.0   961.7    0.00 
  59   10:00   0.43   53.1    67    7.7   294    20.0   961.8    0.00 
  59   10:10   0.37   53.7    66    5.7   299     9.5   961.8    0.00 
  59   10:20   0.30   53.5    66    4.7   324    10.4   961.8    0.00 
  59   10:30   0.36   53.1    66    6.1   307    10.4   961.9    0.00 
  59   10:40   0.61   54.5    64    7.2   292    11.2   961.9    0.00 
  59   10:50   0.68   55.3    64    6.1   271    13.0   961.9    0.00 
  59   11:00   0.57   55.2    63    7.2   242    14.9   961.9    0.00 
  59   11:10   0.68   56.2    59   11.5   239    19.9   961.9    0.00 
  59   11:20   0.82   56.8    57   10.6   248    17.0   961.8    0.00 
  59   11:30   0.81   56.8    56   12.5   246    18.3   961.7    0.00 
  59   11:40   0.91   58.0    54   13.0   244    20.5   961.6    0.00 
  59   11:50   0.57   56.4    55   13.2   260    17.9   961.6    0.00 
  59   12:00   0.79   56.0    56   12.1   263    18.5   961.5    0.00 
  59   12:10   0.96   57.8    55   12.2   240    16.9   961.3    0.00 
  59   12:20   0.63   58.0    54   13.7   236    20.2   961.2    0.00 
  59   12:30   0.32   56.1    60   12.7   228    17.9   961.1    0.00 
  59   12:40   0.49   56.5    60    9.1   236    16.9   961.1    0.00 
  59   12:50   0.49   58.5    57    9.6   233    17.5   961.0    0.00 
  59   13:00   0.82   58.3    60   10.5   225    19.8   960.8    0.00 
  59   13:10   0.72   59.8    57   10.9   222    19.7   960.6    0.00 
  59   13:20   0.63   57.6    60   10.8   230    20.8   960.6    0.00 
  59   13:30   0.43   57.5    62   11.7   220    20.5   960.4    0.00 
  59   13:40   0.39   56.1    64   12.6   220    22.8   960.4    0.00 
  59   13:50   0.62   56.6    63   13.0   223    17.5   960.4    0.00 
  59   14:00   0.41   56.8    63    8.2   214    16.8   960.4    0.00 
  59   14:10   0.47   57.3    64    8.7   213    17.2   960.3    0.00 
  59   14:20   0.76   58.8    62   13.1   223    20.1   960.2    0.00 
  59   14:30   0.33   56.1    69   18.3   229    23.4   960.3    0.00 
  59   14:40   0.36   52.0    86   14.4   224    23.5   960.5    0.01 
  59   14:50   0.59   53.1    87   10.3   233    13.7   960.5    0.00 
  59   15:00   0.33   53.4    81   10.4   234    17.5   960.4    0.00 
  59   15:10   0.34   53.5    80    8.2   212    14.0   960.4    0.00 
  59   15:20   0.27   54.3    73    8.6   238    13.7   960.4    0.00 
  59   15:30   0.45   56.3    65   10.5   230    16.4   960.5    0.00 
  59   15:40   0.41   56.9    64   13.2   226    16.8   960.5    0.00 
  59   15:50   0.19   55.9    66   11.7   226    16.1   960.5    0.00 
  59   16:00   0.19   54.0    70   10.4   220    17.2   960.5    0.00 
  59   16:10   0.32   55.8    68    7.9   211    14.0   960.5    0.00 
  59   16:20   0.26   57.6    64   10.7   227    15.3   960.5    0.00 
  59   16:30   0.20   55.9    68    9.9   228    14.1   960.5    0.00 
  59   16:40   0.20   56.3    68    8.3   200    13.3   960.5    0.00 
  59   16:50   0.05   54.2    72    8.0   206    12.4   960.6    0.00 
  59   17:00   0.04   51.8    79    9.2   210    13.6   960.6    0.00 
  59   17:10   0.06   51.8    79    8.7   204    11.8   960.7    0.00 
  59   17:20   0.03   51.2    79    9.5   219    14.8   960.8    0.00 
  59   17:30   0.04   50.7    80    9.9   226    12.9   960.9    0.00 
  59   17:40   0.03   50.5    81    7.6   230    11.2   960.9    0.00 
  59   17:50   0.01   50.4    80    6.3   229     9.1   961.0    0.00 
  59   18:00   0.00   49.9    79    7.4   236     9.4   961.0    0.00 
  59   18:10   0.00   49.2    82    6.3   232     8.0   961.1    0.00 
  59   18:20   0.00   48.9    83    5.0   235     6.8   961.2    0.00 
  59   18:30   0.00   48.9    84    3.4   225     5.1   961.3    0.00 
  59   18:40   0.00   48.9    83    3.2   233     4.3   961.3    0.00 
  59   18:50   0.00   48.7    82    2.4   215     3.7   961.4    0.00 
  59   19:00   0.00   48.7    82    2.7   197     4.6   961.5    0.00 
  59   19:10   0.00   48.7    80    4.7   221     6.9   961.5    0.00 
  59   19:20   0.00   48.5    78    6.8   226     7.9   961.4    0.00 
  59   19:30   0.00   48.4    77    7.6   219     9.6   961.4    0.00 
  59   19:40   0.00   48.5    78    9.2   227    10.7   961.5    0.00 
  59   19:50   0.00   48.5    79    8.9   233    10.2   961.6    0.00 
  59   20:00   0.00   48.3    81    8.8   232    10.2   961.6    0.00 
  59   20:10   0.00   48.2    83    8.7   230    10.2   961.7    0.00 

Return to Valley Peak, Santa Cruz Island Reserve graphs page.


Western Regional Climate Center,wrcc@dri.edu